createdAt,value
2022-10-05T00:00:27.633Z,9.09
2022-10-05T00:03:11.809Z,9.14
2022-10-05T00:05:47.116Z,9.20
2022-10-05T00:08:23.863Z,8.98
2022-10-05T00:10:57.902Z,8.97
2022-10-05T00:13:33.600Z,9.06
2022-10-05T00:16:14.191Z,8.90
2022-10-05T00:18:51.166Z,8.87
2022-10-05T00:21:27.404Z,8.95
2022-10-05T00:24:02.672Z,9.07
2022-10-05T00:26:37.066Z,9.15
2022-10-05T00:29:21.882Z,9.24
2022-10-05T00:31:55.964Z,9.33
2022-10-05T00:34:34.687Z,9.08
2022-10-05T00:37:09.046Z,9.11
2022-10-05T00:39:43.823Z,9.10
2022-10-05T00:42:37.528Z,8.90
2022-10-05T00:45:16.492Z,8.79
2022-10-05T00:47:56.480Z,8.78
2022-10-05T03:54:24.288Z,10.66
2022-10-05T03:57:04.148Z,10.45
2022-10-05T03:59:44.970Z,9.41
2022-10-05T04:02:25.940Z,9.12
2022-10-05T04:05:06.960Z,8.83
2022-10-05T04:07:46.933Z,8.67
2022-10-05T04:10:26.581Z,8.50
2022-10-05T04:13:06.015Z,8.45
2022-10-05T04:15:46.104Z,8.40
2022-10-05T04:18:27.811Z,8.42
2022-10-05T04:21:08.215Z,8.25
2022-10-05T04:23:49.231Z,8.21
2022-10-05T04:26:32.572Z,8.16
2022-10-05T04:29:15.070Z,8.33
2022-10-05T04:32:00.881Z,8.36
2022-10-05T04:34:53.136Z,8.40
2022-10-05T04:37:36.959Z,9.69
2022-10-05T04:40:24.989Z,11.04
2022-10-05T04:43:11.363Z,9.73
2022-10-05T04:46:04.638Z,10.48
2022-10-05T04:49:04.951Z,10.94
2022-10-05T04:51:50.915Z,10.14
2022-10-05T04:54:41.595Z,9.24
2022-10-05T04:57:23.159Z,9.08
2022-10-05T05:00:17.932Z,8.80
2022-10-05T05:03:21.815Z,8.49
2022-10-05T05:06:16.961Z,8.29
2022-10-05T05:09:28.576Z,8.33
2022-10-05T05:12:16.812Z,8.02
2022-10-05T05:15:14.669Z,7.80
2022-10-05T05:18:07.858Z,7.73
2022-10-05T05:20:55.963Z,7.85
2022-10-05T05:23:42.092Z,7.98
2022-10-05T05:26:25.009Z,8.00
2022-10-05T05:29:13.656Z,8.18
2022-10-05T05:31:53.340Z,8.37
2022-10-05T05:34:41.779Z,8.52
2022-10-05T05:37:28.367Z,8.64
2022-10-05T05:40:14.112Z,8.80
2022-10-05T05:42:55.887Z,8.87
2022-10-05T05:45:41.702Z,8.90
2022-10-05T05:48:23.379Z,9.02
2022-10-05T05:51:02.794Z,9.03
2022-10-05T05:53:41.955Z,8.80
2022-10-05T05:56:21.889Z,8.42
2022-10-05T05:59:00.305Z,8.38
2022-10-05T06:01:44.298Z,8.22
2022-10-05T06:04:27.379Z,7.96
2022-10-05T06:07:04.553Z,7.92
2022-10-05T06:09:46.164Z,8.09
2022-10-05T06:12:22.621Z,8.39
2022-10-05T06:15:01.815Z,8.38
2022-10-05T06:17:42.539Z,8.21
2022-10-05T06:20:32.196Z,8.28
2022-10-05T06:23:13.472Z,8.33
2022-10-05T06:26:10.986Z,8.59
2022-10-05T06:28:53.203Z,8.42
2022-10-05T06:31:43.874Z,8.30
2022-10-05T06:34:27.174Z,8.48
2022-10-05T06:37:07.265Z,8.53
2022-10-05T06:40:03.051Z,8.80
2022-10-05T06:42:58.197Z,8.68
2022-10-05T06:45:49.917Z,8.62
2022-10-05T06:48:37.798Z,8.74
2022-10-05T06:51:23.391Z,9.03
2022-10-05T06:54:20.479Z,9.14
2022-10-05T06:57:02.588Z,9.27
2022-10-05T06:59:45.704Z,9.50
2022-10-05T07:02:27.303Z,9.67
2022-10-05T07:05:49.587Z,9.84
2022-10-05T07:08:40.495Z,10.11
2022-10-05T07:11:30.983Z,10.29
2022-10-05T07:14:22.999Z,10.44
2022-10-05T07:17:22.214Z,10.63
2022-10-05T07:20:10.275Z,10.72
2022-10-05T07:23:03.999Z,10.90
2022-10-05T07:25:44.585Z,11.03
2022-10-05T07:28:26.615Z,10.99
2022-10-05T07:31:08.077Z,11.09
2022-10-05T07:33:52.260Z,11.48
2022-10-05T07:36:54.952Z,11.35
2022-10-05T07:39:59.034Z,11.51
2022-10-05T07:42:51.755Z,11.64
2022-10-05T07:45:32.726Z,11.59
2022-10-05T07:48:15.799Z,11.76
2022-10-05T07:51:01.028Z,12.11
2022-10-05T07:53:40.425Z,11.98
2022-10-05T07:56:22.056Z,12.08
2022-10-05T07:59:03.148Z,12.48
2022-10-05T08:01:43.067Z,14.08
2022-10-05T08:04:21.303Z,14.54
2022-10-05T08:06:59.125Z,13.93
2022-10-05T08:09:40.510Z,13.55
2022-10-05T08:12:25.049Z,13.28
2022-10-05T08:15:04.470Z,13.49
2022-10-05T08:17:50.261Z,13.59
2022-10-05T08:20:42.662Z,13.74
2022-10-05T08:23:25.253Z,13.86
2022-10-05T08:26:08.152Z,14.03
2022-10-05T08:28:51.856Z,14.12
2022-10-05T08:31:30.061Z,14.36
2022-10-05T08:34:22.107Z,14.50
2022-10-05T08:37:05.215Z,14.67
2022-10-05T08:39:42.657Z,14.60
2022-10-05T08:42:51.262Z,15.16
2022-10-05T08:45:55.364Z,15.22
2022-10-05T08:49:02.755Z,15.50
2022-10-05T08:52:14.557Z,15.28
2022-10-05T08:55:16.727Z,15.40
2022-10-05T08:58:18.902Z,15.39
2022-10-05T09:01:01.927Z,15.39
2022-10-05T09:04:11.693Z,15.55
2022-10-05T09:07:24.885Z,15.73
2022-10-05T09:10:46.609Z,15.77
2022-10-05T09:13:34.483Z,15.88
2022-10-05T09:16:23.882Z,15.92
2022-10-05T09:19:31.758Z,15.96
2022-10-05T09:22:17.094Z,15.99
2022-10-05T09:25:01.689Z,16.34
2022-10-05T09:27:40.448Z,16.33
2022-10-05T09:30:23.522Z,16.32
2022-10-05T09:33:37.056Z,16.03
2022-10-05T09:36:48.091Z,15.81
2022-10-05T09:39:51.671Z,16.16
2022-10-05T09:42:53.564Z,16.51
2022-10-05T09:45:50.091Z,16.71
2022-10-05T09:48:59.621Z,17.00
2022-10-05T09:51:58.772Z,17.08
2022-10-05T09:55:09.895Z,17.20
2022-10-05T09:58:12.306Z,17.17
2022-10-05T10:01:15.454Z,17.46
2022-10-05T10:04:20.480Z,17.58
2022-10-05T10:07:21.745Z,17.65
2022-10-05T10:10:35.176Z,17.83
2022-10-05T10:13:46.835Z,17.92
2022-10-05T10:16:38.103Z,18.01
2022-10-05T10:19:32.013Z,18.07
2022-10-05T10:22:31.889Z,18.11
2022-10-05T10:25:40.049Z,18.09
2022-10-05T10:28:50.298Z,18.20
2022-10-05T10:31:52.067Z,17.77
2022-10-05T10:35:10.629Z,17.62
2022-10-05T10:38:19.969Z,17.56
2022-10-05T10:41:15.531Z,17.51
2022-10-05T10:44:32.308Z,17.45
2022-10-05T10:47:29.583Z,17.40
2022-10-05T10:50:39.706Z,17.59
2022-10-05T10:53:44.044Z,17.86
2022-10-05T10:56:44.268Z,18.16
2022-10-05T10:59:41.514Z,18.15
2022-10-05T11:02:49.701Z,18.16
2022-10-05T11:05:33.056Z,17.93
2022-10-05T11:08:33.736Z,18.18
2022-10-05T11:11:20.504Z,18.50
2022-10-05T11:14:22.442Z,18.49
2022-10-05T11:17:24.400Z,18.57
2022-10-05T11:20:19.378Z,18.69
2022-10-05T11:23:00.009Z,18.86
2022-10-05T11:25:57.681Z,18.93
2022-10-05T11:29:17.323Z,19.10
2022-10-05T11:32:13.661Z,19.27
2022-10-05T11:35:24.607Z,19.53
2022-10-05T11:38:22.862Z,19.63
2022-10-05T11:41:22.509Z,19.65
2022-10-05T11:44:39.661Z,20.00
2022-10-05T11:47:22.996Z,19.96
2022-10-05T11:50:12.837Z,19.91
2022-10-05T11:52:55.276Z,20.09
2022-10-05T11:55:33.104Z,20.14
2022-10-05T11:58:16.571Z,19.92
2022-10-05T12:00:57.196Z,20.05
2022-10-05T12:03:54.860Z,19.97
2022-10-05T12:07:00.921Z,20.39
2022-10-05T12:10:03.848Z,20.27
2022-10-05T12:12:40.716Z,20.28
2022-10-05T12:15:24.300Z,20.32
2022-10-05T12:18:08.385Z,20.42
2022-10-05T12:20:52.040Z,20.54
2022-10-05T12:23:34.710Z,20.24
2022-10-05T12:26:14.946Z,20.31
2022-10-05T12:28:53.274Z,20.67
2022-10-05T12:31:40.340Z,20.73
2022-10-05T12:34:26.996Z,20.75
2022-10-05T12:37:07.516Z,20.69
2022-10-05T12:39:45.122Z,20.65
2022-10-05T12:42:30.610Z,20.14
2022-10-05T12:45:19.233Z,19.87
2022-10-05T12:48:10.493Z,19.57
2022-10-05T12:50:50.501Z,19.57
2022-10-05T12:53:36.536Z,19.60
2022-10-05T12:56:18.088Z,20.08
2022-10-05T12:59:02.454Z,19.91
2022-10-05T13:01:42.105Z,19.83
2022-10-05T13:04:29.299Z,19.84
2022-10-05T13:07:25.102Z,19.94
2022-10-05T13:10:09.713Z,19.64
2022-10-05T13:12:57.132Z,19.58
2022-10-05T13:15:37.432Z,19.58
2022-10-05T13:18:22.679Z,19.67
2022-10-05T13:21:05.216Z,19.84
2022-10-05T13:23:51.724Z,19.73
2022-10-05T13:26:34.670Z,19.75
2022-10-05T13:29:25.270Z,19.93
2022-10-05T13:32:06.377Z,20.04
2022-10-05T13:34:48.125Z,19.93
2022-10-05T13:37:31.868Z,19.81
2022-10-05T13:40:18.718Z,19.55
2022-10-05T13:43:02.042Z,19.59
2022-10-05T13:45:42.440Z,19.85
2022-10-05T13:48:29.720Z,20.01
2022-10-05T13:51:13.143Z,20.00
2022-10-05T13:53:52.252Z,20.07
2022-10-05T13:56:31.208Z,20.07
2022-10-05T13:59:16.713Z,19.91
2022-10-05T14:01:58.860Z,19.75
2022-10-05T14:04:45.944Z,19.68
2022-10-05T14:07:34.195Z,19.53
2022-10-05T14:10:14.524Z,19.45
2022-10-05T14:12:56.156Z,19.42
2022-10-05T14:15:32.445Z,19.41
2022-10-05T14:18:24.724Z,19.27
2022-10-05T14:21:03.145Z,19.31
2022-10-05T14:23:38.473Z,19.19
2022-10-05T14:26:20.282Z,19.21
2022-10-05T14:29:03.123Z,19.14
2022-10-05T14:31:38.871Z,19.13
2022-10-05T14:34:33.185Z,18.97
2022-10-05T14:37:21.611Z,18.88
2022-10-05T14:40:03.687Z,18.89
2022-10-05T14:42:47.290Z,18.86
2022-10-05T14:45:23.786Z,18.74
2022-10-05T14:48:11.512Z,18.62
2022-10-05T14:50:55.652Z,18.61
2022-10-05T14:53:40.147Z,18.64
2022-10-05T14:56:29.677Z,18.58
2022-10-05T14:59:30.531Z,18.50
2022-10-05T15:02:28.752Z,18.46
2022-10-05T15:05:09.350Z,18.39
2022-10-05T15:07:45.140Z,18.38
2022-10-05T15:10:32.418Z,18.39
2022-10-05T15:13:13.368Z,18.31
2022-10-05T15:15:54.811Z,18.35
2022-10-05T15:18:37.388Z,18.28
2022-10-05T15:21:33.798Z,18.25
2022-10-05T15:24:13.284Z,18.08
2022-10-05T15:26:54.597Z,17.94
2022-10-05T15:29:52.317Z,17.93
2022-10-05T15:32:43.698Z,17.84
2022-10-05T15:35:36.139Z,17.73
2022-10-05T15:38:22.010Z,17.74
2022-10-05T15:41:03.536Z,17.62
2022-10-05T15:43:51.337Z,17.51
2022-10-05T15:46:34.534Z,17.59
2022-10-05T15:49:23.472Z,17.36
2022-10-05T15:52:05.521Z,17.23
2022-10-05T15:55:07.235Z,17.11
2022-10-05T15:57:46.594Z,17.07
2022-10-05T16:00:24.373Z,16.98
2022-10-05T16:03:11.286Z,16.93
2022-10-05T16:06:06.457Z,16.85
2022-10-05T16:09:04.469Z,16.85
2022-10-05T16:11:59.823Z,16.79
2022-10-05T16:14:46.842Z,16.73
2022-10-05T16:17:36.477Z,16.55
2022-10-05T16:20:26.236Z,16.55
2022-10-05T16:23:07.639Z,16.51
2022-10-05T16:25:53.716Z,16.33
2022-10-05T16:28:40.637Z,16.25
2022-10-05T16:31:20.070Z,16.23
2022-10-05T16:34:17.256Z,16.25
2022-10-05T16:37:00.328Z,16.16
2022-10-05T16:39:56.536Z,16.07
2022-10-05T16:42:42.346Z,16.09
2022-10-05T16:45:44.736Z,16.03
2022-10-05T16:48:26.249Z,15.96
2022-10-05T16:51:17.115Z,16.01
2022-10-05T16:54:02.193Z,15.95
2022-10-05T16:56:47.880Z,15.84
2022-10-05T16:59:50.173Z,15.70
2022-10-05T17:02:37.775Z,15.81
2022-10-05T17:05:27.296Z,15.64
2022-10-05T17:08:29.531Z,15.62
2022-10-05T17:11:20.488Z,15.67
2022-10-05T17:14:16.082Z,15.64
2022-10-05T17:17:05.576Z,15.59
2022-10-05T17:19:50.760Z,15.51
2022-10-05T17:22:28.420Z,15.36
2022-10-05T17:25:13.425Z,15.37
2022-10-05T17:27:53.658Z,15.30
2022-10-05T17:30:51.503Z,15.24
2022-10-05T17:33:29.073Z,15.20
2022-10-05T17:36:19.237Z,15.13
2022-10-05T17:38:54.091Z,15.18
2022-10-05T17:41:31.150Z,15.11
2022-10-05T17:44:26.333Z,15.11
2022-10-05T17:47:03.992Z,14.98
2022-10-05T17:50:16.821Z,15.05
2022-10-05T17:53:38.155Z,15.03
2022-10-05T17:56:12.828Z,14.84
2022-10-05T17:59:04.299Z,14.94
2022-10-05T18:01:40.228Z,14.95
2022-10-05T18:04:33.715Z,14.83
2022-10-05T18:07:23.089Z,14.85
2022-10-05T18:10:22.649Z,16.06
2022-10-05T18:13:21.468Z,16.71
2022-10-05T18:15:57.416Z,15.96
2022-10-05T18:18:56.558Z,15.58
2022-10-05T18:21:35.644Z,15.92
2022-10-05T18:24:28.194Z,16.57
2022-10-05T18:27:30.758Z,16.37
2022-10-05T18:30:17.359Z,15.86
2022-10-05T18:33:27.313Z,15.52
2022-10-05T18:36:12.124Z,15.27
2022-10-05T18:38:55.351Z,15.12
2022-10-05T18:41:40.999Z,14.90
2022-10-05T18:44:31.221Z,14.78
2022-10-05T18:47:14.887Z,14.77
2022-10-05T18:50:06.272Z,14.75
2022-10-05T18:52:53.656Z,14.71
2022-10-05T18:55:34.622Z,14.58
2022-10-05T18:58:20.340Z,14.53
2022-10-05T19:01:17.642Z,14.62
2022-10-05T19:04:04.531Z,14.59
2022-10-05T19:06:51.893Z,14.53
2022-10-05T19:09:41.340Z,15.31
2022-10-05T19:12:24.772Z,15.31
2022-10-05T19:15:07.657Z,14.90
2022-10-05T19:18:06.105Z,14.81
2022-10-05T19:20:48.100Z,14.68
2022-10-05T19:23:46.939Z,14.50
2022-10-05T19:26:37.183Z,14.40
2022-10-05T19:29:23.867Z,14.21
2022-10-05T19:32:04.080Z,14.18
2022-10-05T19:34:46.741Z,14.27
2022-10-05T19:37:27.587Z,14.21
2022-10-05T19:40:10.688Z,14.11
2022-10-05T19:43:00.593Z,14.04
2022-10-05T19:45:40.379Z,14.17
2022-10-05T19:48:27.927Z,14.01
2022-10-05T19:51:02.998Z,14.00
2022-10-05T19:53:39.236Z,13.92
2022-10-05T19:56:20.682Z,13.93
2022-10-05T19:58:56.601Z,13.94
2022-10-05T20:01:34.129Z,13.98
2022-10-05T20:04:09.560Z,13.94
2022-10-05T20:06:43.787Z,13.89
2022-10-05T20:09:22.828Z,15.18
2022-10-05T20:11:58.210Z,15.92
2022-10-05T20:16:46.139Z,15.20
2022-10-05T20:19:58.192Z,15.20
2022-10-05T20:22:34.561Z,14.30
2022-10-05T20:25:32.318Z,14.21
2022-10-05T20:28:07.360Z,14.07
2022-10-05T20:30:41.761Z,13.92
2022-10-05T20:33:17.315Z,13.90
2022-10-05T20:35:54.168Z,13.81
2022-10-05T20:38:28.779Z,13.73
2022-10-05T20:41:03.314Z,13.73
2022-10-05T20:43:39.517Z,13.66
2022-10-05T20:46:14.025Z,13.57
2022-10-05T20:48:49.562Z,13.52
2022-10-05T20:51:23.939Z,13.57
2022-10-05T20:53:58.594Z,13.43
2022-10-05T20:56:33.081Z,13.48
2022-10-05T20:59:07.185Z,13.49
2022-10-05T21:01:48.149Z,13.47
2022-10-05T21:04:25.289Z,13.46
2022-10-05T21:07:02.820Z,13.40
2022-10-05T21:09:38.559Z,13.41
2022-10-05T21:12:13.228Z,13.39
2022-10-05T21:14:47.518Z,13.38
2022-10-05T21:17:21.949Z,13.31
2022-10-05T21:19:57.591Z,13.32
2022-10-05T21:22:32.024Z,13.32
2022-10-05T21:25:09.014Z,13.30
2022-10-05T21:27:43.542Z,13.21
2022-10-05T21:30:18.866Z,13.23
2022-10-05T21:35:33.588Z,13.11
2022-10-05T21:38:07.916Z,13.16
2022-10-05T21:40:44.127Z,13.06
2022-10-05T21:43:18.807Z,13.08
2022-10-05T21:45:53.162Z,12.97
2022-10-05T21:48:27.942Z,12.99
2022-10-05T21:51:03.681Z,12.92
2022-10-05T21:53:43.369Z,12.92
2022-10-05T21:56:20.600Z,12.77
2022-10-05T21:58:55.184Z,12.86
2022-10-05T22:01:29.252Z,12.82
2022-10-05T22:04:03.875Z,12.82
2022-10-05T22:06:39.258Z,12.84
2022-10-05T22:09:13.955Z,12.87
2022-10-05T22:11:49.280Z,12.93
2022-10-05T22:14:24.016Z,12.89
2022-10-05T22:16:58.144Z,12.65
2022-10-05T22:19:33.788Z,12.69
2022-10-05T22:22:11.886Z,12.73
2022-10-05T22:24:46.560Z,12.70
2022-10-05T22:27:22.537Z,12.64
2022-10-05T22:29:59.049Z,12.53
2022-10-05T22:32:33.234Z,12.48
2022-10-05T22:35:11.571Z,12.54
2022-10-05T22:37:47.637Z,12.52
2022-10-05T22:40:22.232Z,12.58
2022-10-05T22:42:56.364Z,12.55
2022-10-05T22:45:32.779Z,12.50
2022-10-05T22:48:07.250Z,12.60
2022-10-05T22:50:45.492Z,12.50
2022-10-05T22:53:21.045Z,12.50
2022-10-05T22:55:55.462Z,12.45
2022-10-05T22:58:30.083Z,12.37
2022-10-05T23:01:06.222Z,12.28
2022-10-05T23:03:40.520Z,12.21
2022-10-05T23:06:16.786Z,12.06
2022-10-05T23:08:52.373Z,12.06
2022-10-05T23:11:30.228Z,11.93
2022-10-05T23:14:04.686Z,11.87
2022-10-05T23:16:39.154Z,11.84
2022-10-05T23:19:13.477Z,11.68
2022-10-05T23:21:47.825Z,11.61
2022-10-05T23:24:23.324Z,11.69
2022-10-05T23:26:57.676Z,11.56
2022-10-05T23:29:31.901Z,11.50
2022-10-05T23:32:06.326Z,11.53
2022-10-05T23:34:40.365Z,11.56
2022-10-05T23:37:14.769Z,11.57
2022-10-05T23:39:50.475Z,11.52
2022-10-05T23:42:25.278Z,11.51
2022-10-05T23:44:59.350Z,11.62
2022-10-05T23:47:33.726Z,11.60
2022-10-05T23:50:09.571Z,11.72
2022-10-05T23:52:44.079Z,11.79
2022-10-05T23:55:19.566Z,11.66
2022-10-05T23:57:54.004Z,11.50
